Terminal Aerodrome Forecast
Issued by NWS

Home | Current Version | Previous Version | Text Only | Print | Product List | Glossary On
Versions: 1 2 3 4 5 6 7 8 9 10 11 12 13 14
344
FTUS44 KBMX 260829 AAA
TAFTOI
TAF AMD
KTOI 260829Z 2608/2706 05002KT P6SM SKC
      TEMPO 2608/2610 1SM BR
     FM261600 03005KT P6SM FEW050
     FM270000 00000KT P6SM SKC=

USA.gov is the U.S. government's official web portal to all federal, state and local government web resources and services.